createdAt,value
2019-05-09T00:00:16.610Z,10.38
2019-05-09T00:01:16.685Z,10.41
2019-05-09T00:02:16.237Z,10.34
2019-05-09T00:03:16.057Z,10.35
2019-05-09T00:04:16.378Z,10.34
2019-05-09T00:05:16.311Z,10.23
2019-05-09T00:06:16.114Z,10.25
2019-05-09T00:07:16.501Z,10.25
2019-05-09T00:08:16.230Z,10.25
2019-05-09T00:09:16.106Z,10.26
2019-05-09T00:10:16.478Z,10.22
2019-05-09T00:11:17.109Z,10.15
2019-05-09T00:12:16.728Z,10.15
2019-05-09T00:13:15.902Z,10.13
2019-05-09T00:14:15.816Z,10.16
2019-05-09T00:15:16.127Z,10.19
2019-05-09T00:16:16.756Z,10.15
2019-05-09T00:17:16.317Z,10.2
2019-05-09T00:18:16.734Z,10.12
2019-05-09T00:19:15.986Z,10.1
2019-05-09T00:20:15.862Z,10.12
2019-05-09T00:21:15.659Z,10.09
2019-05-09T00:22:16.184Z,10.13
2019-05-09T00:23:15.781Z,10.09
2019-05-09T00:24:16.383Z,10.16
2019-05-09T00:25:15.685Z,10.2
2019-05-09T00:26:15.673Z,10.22
2019-05-09T00:27:16.393Z,10.13
2019-05-09T00:28:16.004Z,10.13
2019-05-09T00:29:16.535Z,10.13
2019-05-09T00:30:16.430Z,10.12
2019-05-09T00:31:16.130Z,10.13
2019-05-09T00:32:16.181Z,10.17
2019-05-09T00:33:16.755Z,10.26
2019-05-09T00:34:16.828Z,10.3
2019-05-09T00:35:16.349Z,10.3
2019-05-09T00:36:16.515Z,10.33
2019-05-09T00:37:15.987Z,10.37
2019-05-09T00:38:15.787Z,10.41
2019-05-09T00:39:15.874Z,10.42
2019-05-09T00:40:15.715Z,10.44
2019-05-09T00:41:16.488Z,10.38
2019-05-09T00:42:16.179Z,10.56
2019-05-09T00:43:15.677Z,10.51
2019-05-09T00:44:16.344Z,10.49
2019-05-09T00:45:15.758Z,10.56
2019-05-09T00:46:16.353Z,10.6
2019-05-09T00:47:16.002Z,10.56
2019-05-09T00:48:16.285Z,10.67
2019-05-09T00:49:16.502Z,10.57
2019-05-09T00:50:15.668Z,10.69
2019-05-09T00:51:16.544Z,10.72
2019-05-09T00:52:16.314Z,10.61
2019-05-09T00:53:15.986Z,10.71
2019-05-09T00:54:15.990Z,10.71
2019-05-09T00:55:15.677Z,10.69
2019-05-09T00:56:15.695Z,10.74
2019-05-09T00:57:15.982Z,10.79
2019-05-09T00:58:16.059Z,10.76
2019-05-09T00:59:15.987Z,10.81
2019-05-09T01:00:17.147Z,10.84
2019-05-09T01:01:15.506Z,10.86
2019-05-09T01:02:15.689Z,10.78
2019-05-09T01:03:16.688Z,10.87
2019-05-09T01:04:15.900Z,10.92
2019-05-09T01:05:15.721Z,10.87
2019-05-09T01:06:15.930Z,10.93
2019-05-09T01:07:16.413Z,10.9
2019-05-09T01:08:16.161Z,10.92
2019-05-09T01:09:16.215Z,11.07
2019-05-09T01:10:15.899Z,10.93
2019-05-09T01:11:19.684Z,11.07
2019-05-09T01:12:16.455Z,11.05
2019-05-09T01:13:16.701Z,10.99
2019-05-09T01:14:16.668Z,10.99
2019-05-09T01:15:15.868Z,10.94
2019-05-09T01:16:15.892Z,11.11
2019-05-09T01:17:16.075Z,11.12
2019-05-09T01:18:15.746Z,11.07
2019-05-09T01:19:16.627Z,11.12
2019-05-09T01:20:17.121Z,11.04
2019-05-09T01:21:15.867Z,11.07
2019-05-09T01:22:15.697Z,11.11
2019-05-09T01:23:16.727Z,11.1
2019-05-09T01:24:16.364Z,11.08
2019-05-09T01:25:15.916Z,11.11
2019-05-09T01:26:15.720Z,11.11
2019-05-09T01:27:16.431Z,11.07
2019-05-09T01:28:16.430Z,11.08
2019-05-09T01:29:16.322Z,11.08
2019-05-09T01:30:16.024Z,11.17
2019-05-09T01:31:15.793Z,11.14
2019-05-09T01:32:16.902Z,11.15
2019-05-09T01:33:16.078Z,11.23
2019-05-09T01:34:15.535Z,11.12
2019-05-09T01:35:15.668Z,11.1
2019-05-09T01:36:16.915Z,11.07
2019-05-09T01:37:16.578Z,11.08
2019-05-09T01:38:16.468Z,11.05
2019-05-09T01:39:16.010Z,10.99
2019-05-09T01:40:15.512Z,10.94
2019-05-09T01:41:36.222Z,11
2019-05-09T01:42:16.281Z,10.79
2019-05-09T01:43:16.095Z,10.94
2019-05-09T01:44:15.904Z,10.93
2019-05-09T01:45:16.636Z,10.82
2019-05-09T01:46:16.569Z,10.93
2019-05-09T01:47:16.576Z,10.82
2019-05-09T01:48:16.467Z,10.79
2019-05-09T01:49:16.328Z,10.81
2019-05-09T01:50:16.529Z,10.82
2019-05-09T01:51:16.380Z,10.93
2019-05-09T01:52:16.012Z,10.87
2019-05-09T01:53:15.901Z,10.87
2019-05-09T01:54:15.711Z,10.89
2019-05-09T01:55:16.661Z,10.78
2019-05-09T01:56:16.477Z,10.71
2019-05-09T01:57:16.303Z,10.78
2019-05-09T01:58:16.335Z,10.64
2019-05-09T01:59:16.177Z,10.56
2019-05-09T02:00:15.724Z,10.57
2019-05-09T02:01:15.960Z,10.49
2019-05-09T02:02:16.676Z,10.46
2019-05-09T02:03:16.442Z,10.44
2019-05-09T02:04:16.228Z,10.31
2019-05-09T02:05:15.965Z,10.35
2019-05-09T02:06:16.104Z,10.31
2019-05-09T02:07:15.833Z,10.37
2019-05-09T02:08:16.427Z,10.38
2019-05-09T02:09:16.539Z,10.31
2019-05-09T02:10:16.373Z,10.25
2019-05-09T02:11:15.720Z,10.22
2019-05-09T02:12:16.656Z,10.12
2019-05-09T02:13:16.149Z,10.09
2019-05-09T02:14:15.995Z,10.15
2019-05-09T02:15:15.586Z,10.05
2019-05-09T02:16:16.564Z,10.13
2019-05-09T02:17:16.425Z,10.09
2019-05-09T02:18:16.190Z,10.05
2019-05-09T02:19:16.071Z,10.05
2019-05-09T02:20:16.177Z,10.05
2019-05-09T02:21:18.866Z,9.98
2019-05-09T02:22:15.293Z,10.04
2019-05-09T02:23:16.428Z,9.98
2019-05-09T02:24:16.594Z,10.05
2019-05-09T02:25:16.113Z,9.99
2019-05-09T02:26:16.117Z,10.13
2019-05-09T02:27:15.666Z,10.17
2019-05-09T02:28:16.656Z,10.13
2019-05-09T02:29:16.326Z,10.16
2019-05-09T02:30:17.903Z,10.28
2019-05-09T02:31:18.403Z,10.31
2019-05-09T02:32:16.526Z,10.42
2019-05-09T02:33:16.868Z,10.41
2019-05-09T02:34:17.533Z,10.48
2019-05-09T02:35:14.579Z,10.54
2019-05-09T02:36:14.803Z,10.59
2019-05-09T02:37:14.274Z,10.6
2019-05-09T02:38:14.364Z,10.6
2019-05-09T02:39:14.522Z,10.59
2019-05-09T02:40:18.461Z,10.61
2019-05-09T02:41:14.578Z,10.57
2019-05-09T02:42:22.103Z,10.56
2019-05-09T02:43:15.048Z,10.57
2019-05-09T02:44:14.489Z,10.51
2019-05-09T02:45:14.244Z,10.46
2019-05-09T02:46:14.673Z,10.38
2019-05-09T02:47:14.230Z,10.37
2019-05-09T02:48:14.022Z,10.37
2019-05-09T02:49:14.505Z,10.41
2019-05-09T02:50:14.961Z,10.31
2019-05-09T02:51:14.490Z,10.3
2019-05-09T02:52:14.188Z,10.28
2019-05-09T02:53:14.475Z,10.28
2019-05-09T02:54:14.762Z,10.13
2019-05-09T02:55:18.142Z,10.12
2019-05-09T02:56:14.444Z,10.12
2019-05-09T02:57:14.053Z,10.15
2019-05-09T02:58:14.423Z,10.19
2019-05-09T02:59:14.907Z,10.1
2019-05-09T03:00:14.175Z,10.13
2019-05-09T03:01:14.411Z,10.07
2019-05-09T03:02:14.652Z,9.99
2019-05-09T03:03:14.493Z,9.99
2019-05-09T03:04:14.448Z,9.97
2019-05-09T03:05:14.120Z,9.99
2019-05-09T03:06:14.114Z,9.98
2019-05-09T03:07:14.845Z,10.02
2019-05-09T03:08:14.772Z,10.02
2019-05-09T03:09:14.951Z,9.98
2019-05-09T03:10:14.352Z,9.99
2019-05-09T03:11:14.721Z,9.99
2019-05-09T03:12:39.799Z,9.92
2019-05-09T03:13:14.477Z,9.86
2019-05-09T03:14:14.096Z,9.89
2019-05-09T03:15:13.797Z,9.83
2019-05-09T03:16:14.054Z,9.79
2019-05-09T03:17:14.064Z,9.73
2019-05-09T03:18:14.460Z,9.74
2019-05-09T03:19:14.380Z,9.61
2019-05-09T03:20:14.614Z,9.72
2019-05-09T03:21:14.075Z,9.77
2019-05-09T03:22:14.299Z,9.8
2019-05-09T03:23:14.339Z,9.76
2019-05-09T03:24:18.132Z,9.74
2019-05-09T03:25:14.263Z,9.73
2019-05-09T03:26:14.242Z,9.76
2019-05-09T03:27:14.243Z,9.76
2019-05-09T03:28:14.781Z,9.83
2019-05-09T03:29:14.239Z,9.86
2019-05-09T03:30:20.646Z,9.89
2019-05-09T03:31:14.779Z,9.91
2019-05-09T03:32:14.039Z,9.94
2019-05-09T03:33:15.434Z,9.94
2019-05-09T03:34:14.435Z,9.84
2019-05-09T03:35:14.190Z,9.83
2019-05-09T03:36:13.943Z,9.83
2019-05-09T03:37:13.941Z,9.83
2019-05-09T03:38:13.657Z,9.84
2019-05-09T03:39:14.171Z,9.72
2019-05-09T03:40:14.169Z,9.76
2019-05-09T03:41:14.162Z,9.77
2019-05-09T03:42:14.153Z,9.83
2019-05-09T03:43:13.905Z,9.79
2019-05-09T03:44:14.142Z,9.74
2019-05-09T03:45:14.135Z,9.77
2019-05-09T03:46:14.137Z,9.74
2019-05-09T03:47:13.862Z,9.69
2019-05-09T03:48:13.856Z,9.76
2019-05-09T03:49:14.122Z,9.61
2019-05-09T03:50:14.109Z,9.64
2019-05-09T03:51:14.107Z,9.62
2019-05-09T03:52:14.091Z,9.62
2019-05-09T03:53:14.088Z,9.5
2019-05-09T03:54:13.870Z,9.56
2019-05-09T03:55:13.852Z,9.5
2019-05-09T03:56:14.077Z,9.58
2019-05-09T03:57:14.072Z,9.64
2019-05-09T03:58:14.067Z,9.64
2019-05-09T03:59:14.071Z,9.64
2019-05-09T04:00:14.068Z,9.62
2019-05-09T04:01:17.503Z,9.69
2019-05-09T04:02:14.916Z,9.68
2019-05-09T04:03:13.762Z,9.73
2019-05-09T04:04:14.003Z,9.74
2019-05-09T04:05:13.758Z,9.66
2019-05-09T04:06:13.779Z,9.77
2019-05-09T04:07:14.002Z,9.79
2019-05-09T04:08:13.998Z,9.86
2019-05-09T04:09:13.982Z,9.79
2019-05-09T04:10:13.984Z,9.94
2019-05-09T04:11:13.978Z,9.84
2019-05-09T04:12:13.733Z,9.84
2019-05-09T04:13:17.960Z,9.91
2019-05-09T04:14:13.444Z,10.01
2019-05-09T04:15:13.955Z,10.04
2019-05-09T04:16:13.948Z,9.98
2019-05-09T04:17:13.936Z,9.99
2019-05-09T04:18:13.942Z,10.09
2019-05-09T04:19:13.928Z,10.09
2019-05-09T04:20:13.679Z,10.07
2019-05-09T04:21:13.693Z,10.1
2019-05-09T04:22:13.660Z,10.17
2019-05-09T04:23:13.643Z,10.13
2019-05-09T04:24:13.897Z,10.07
2019-05-09T04:25:13.643Z,10.2
2019-05-09T04:26:13.621Z,10.3
2019-05-09T04:27:13.895Z,10.26
2019-05-09T04:28:13.623Z,10.28
2019-05-09T04:29:13.610Z,10.25
2019-05-09T04:30:14.408Z,10.22
2019-05-09T04:31:13.606Z,10.16
2019-05-09T04:32:13.590Z,10.13
2019-05-09T04:33:13.848Z,10.19
2019-05-09T04:34:14.730Z,10.1
2019-05-09T04:35:13.850Z,10.05
2019-05-09T04:36:13.833Z,10.01
2019-05-09T04:37:17.991Z,10.07
2019-05-09T04:38:13.572Z,10.09
2019-05-09T04:39:28.004Z,10.15
2019-05-09T04:40:13.560Z,10.28
2019-05-09T04:41:16.219Z,10.49
2019-05-09T04:42:13.534Z,10.78
2019-05-09T04:43:37.494Z,11.26
2019-05-09T04:44:24.161Z,11.52
2019-05-09T04:45:15.110Z,11.78
2019-05-09T04:46:27.518Z,12.25
2019-05-09T04:47:13.510Z,12.24
2019-05-09T04:48:24.011Z,12.64
2019-05-09T04:49:13.521Z,12.79
2019-05-09T04:50:23.136Z,13.03
2019-05-09T04:51:13.308Z,13.11
2019-05-09T04:52:13.511Z,13.22
2019-05-09T04:53:13.238Z,13.04
2019-05-09T04:54:13.496Z,12.86
2019-05-09T04:55:13.549Z,12.76
2019-05-09T04:56:13.511Z,12.58
2019-05-09T04:57:13.485Z,12.39
2019-05-09T04:58:14.185Z,12.37
2019-05-09T04:59:13.741Z,12.35
2019-05-09T05:00:14.754Z,12.25
2019-05-09T05:01:13.474Z,12.64
2019-05-09T05:02:13.493Z,12.95
2019-05-09T05:03:13.210Z,13.04
2019-05-09T05:04:13.487Z,13.18
2019-05-09T05:05:13.466Z,13.27
2019-05-09T05:06:13.715Z,13.3
2019-05-09T05:07:13.471Z,13.47
2019-05-09T05:08:13.459Z,13.42
2019-05-09T05:09:13.488Z,13.3
2019-05-09T05:10:14.037Z,13.19
2019-05-09T05:11:13.488Z,13.13
2019-05-09T05:12:13.461Z,13.05
2019-05-09T05:13:31.449Z,12.98
2019-05-09T05:14:13.961Z,12.98
2019-05-09T05:15:13.454Z,12.9
2019-05-09T05:16:13.454Z,12.82
2019-05-09T05:17:17.922Z,12.85
2019-05-09T05:18:13.189Z,13.19
2019-05-09T05:19:13.450Z,13.47
2019-05-09T05:20:13.449Z,13.85
2019-05-09T05:21:13.701Z,14.44
2019-05-09T05:22:13.692Z,14.91
2019-05-09T05:23:13.681Z,15.21
2019-05-09T05:24:13.692Z,15.49
2019-05-09T05:25:14.230Z,15.76
2019-05-09T05:26:14.284Z,16.04
2019-05-09T05:27:13.440Z,16.24
2019-05-09T05:28:13.173Z,16.38
2019-05-09T05:29:13.460Z,16.32
2019-05-09T05:30:13.419Z,16.35
2019-05-09T05:31:13.189Z,16.28
2019-05-09T05:32:13.451Z,16.1
2019-05-09T05:33:13.683Z,16.08
2019-05-09T05:34:13.684Z,15.84
2019-05-09T05:35:13.724Z,15.51
2019-05-09T05:36:13.442Z,15.27
2019-05-09T05:37:13.441Z,15
2019-05-09T05:38:13.439Z,14.69
2019-05-09T05:39:13.439Z,14.5
2019-05-09T05:40:13.481Z,14.2
2019-05-09T05:41:13.687Z,14.03
2019-05-09T05:42:13.425Z,13.89
2019-05-09T05:43:13.527Z,13.7
2019-05-09T05:44:13.166Z,13.56
2019-05-09T05:45:13.438Z,13.44
2019-05-09T05:46:13.447Z,13.35
2019-05-09T05:47:13.441Z,13.27
2019-05-09T05:48:13.427Z,13.08
2019-05-09T05:49:13.689Z,13
2019-05-09T05:50:13.414Z,12.95
2019-05-09T05:51:13.663Z,12.78
2019-05-09T05:52:13.161Z,12.82
2019-05-09T05:53:13.666Z,12.79
2019-05-09T05:54:13.665Z,12.72
2019-05-09T05:55:13.464Z,12.67
2019-05-09T05:56:13.402Z,12.67
2019-05-09T05:57:13.404Z,12.72
2019-05-09T05:58:13.445Z,12.79
2019-05-09T05:59:13.662Z,12.72
2019-05-09T06:00:13.428Z,12.72
2019-05-09T06:01:13.654Z,12.7
2019-05-09T06:02:13.778Z,12.7
2019-05-09T06:03:13.756Z,12.73
2019-05-09T06:04:13.406Z,12.79
2019-05-09T06:05:13.650Z,12.8
2019-05-09T06:06:13.877Z,12.78
2019-05-09T06:07:13.634Z,12.82
2019-05-09T06:08:13.120Z,12.83
2019-05-09T06:09:13.630Z,12.83
2019-05-09T06:10:13.627Z,12.8
2019-05-09T06:11:17.667Z,12.8
2019-05-09T06:12:13.617Z,12.78
2019-05-09T06:13:13.619Z,12.78
2019-05-09T06:14:18.377Z,12.75
2019-05-09T06:15:13.353Z,12.79
2019-05-09T06:16:13.633Z,12.78
2019-05-09T06:17:13.103Z,12.78
2019-05-09T06:18:13.085Z,12.83
2019-05-09T06:19:13.957Z,12.8
2019-05-09T06:20:13.994Z,12.75
2019-05-09T06:21:13.860Z,12.68
2019-05-09T06:22:13.350Z,12.7
2019-05-09T06:23:13.621Z,12.7
2019-05-09T06:24:13.355Z,12.75
2019-05-09T06:25:14.608Z,12.73
2019-05-09T06:26:15.201Z,12.78
2019-05-09T06:27:15.242Z,12.86
2019-05-09T06:28:13.577Z,12.87
2019-05-09T06:29:13.562Z,12.98
2019-05-09T06:30:13.665Z,12.95
2019-05-09T06:31:13.051Z,12.98
2019-05-09T06:32:13.303Z,13.01
2019-05-09T06:33:13.770Z,13
2019-05-09T06:34:13.302Z,13.13
2019-05-09T06:35:13.295Z,13.22
2019-05-09T06:36:13.296Z,13.22
2019-05-09T06:37:14.164Z,13.01
2019-05-09T06:38:13.535Z,13.01
2019-05-09T06:39:13.298Z,13.13
2019-05-09T06:40:13.323Z,13.16
2019-05-09T06:41:17.617Z,13.27
2019-05-09T06:42:13.923Z,13.28
2019-05-09T06:43:13.572Z,13.19
2019-05-09T06:44:23.205Z,13.28
2019-05-09T06:45:13.076Z,13.22
2019-05-09T06:46:13.538Z,13.2
2019-05-09T06:47:13.254Z,13.16
2019-05-09T06:48:13.026Z,13.09
2019-05-09T06:49:34.423Z,13.11
2019-05-09T06:50:13.003Z,13.01
2019-05-09T06:51:13.260Z,13.13
2019-05-09T06:52:13.781Z,13.42
2019-05-09T06:53:13.254Z,14
2019-05-09T06:54:13.237Z,14.92
2019-05-09T06:55:13.683Z,15.73
2019-05-09T06:56:13.517Z,16.66
2019-05-09T06:57:13.244Z,17.46
2019-05-09T06:58:13.813Z,18.15
2019-05-09T06:59:13.242Z,18.59
2019-05-09T07:00:13.237Z,18.96
2019-05-09T07:01:12.975Z,19.15
2019-05-09T07:02:13.236Z,19.37
2019-05-09T07:03:13.498Z,19.69
2019-05-09T07:04:13.577Z,19.67
2019-05-09T07:05:13.236Z,19.81
2019-05-09T07:06:13.252Z,19.79
2019-05-09T07:07:12.990Z,19.55
2019-05-09T07:08:13.254Z,19.12
2019-05-09T07:09:13.245Z,18.59
2019-05-09T07:10:13.249Z,18.26
2019-05-09T07:11:13.252Z,17.86
2019-05-09T07:12:13.011Z,17.51
2019-05-09T07:13:13.265Z,17.24
2019-05-09T07:14:33.156Z,16.83
2019-05-09T07:15:13.866Z,16.69
2019-05-09T07:16:13.638Z,16.43
2019-05-09T07:17:13.558Z,16.28
2019-05-09T07:18:13.537Z,16.02
2019-05-09T07:19:13.266Z,15.86
2019-05-09T07:20:13.624Z,15.75
2019-05-09T07:21:13.023Z,15.68
2019-05-09T07:22:14.058Z,15.43
2019-05-09T07:23:13.751Z,15.36
2019-05-09T07:24:13.270Z,15.1
2019-05-09T07:25:15.505Z,14.99
2019-05-09T07:26:13.006Z,14.92
2019-05-09T07:27:13.542Z,14.86
2019-05-09T07:28:13.046Z,14.86
2019-05-09T07:29:13.017Z,14.68
2019-05-09T07:30:13.275Z,14.62
2019-05-09T07:31:17.703Z,14.58
2019-05-09T07:32:13.001Z,14.78
2019-05-09T07:33:13.514Z,14.68
2019-05-09T07:34:13.553Z,14.82
2019-05-09T07:35:13.546Z,14.68
2019-05-09T07:36:13.263Z,14.81
2019-05-09T07:37:13.266Z,14.78
2019-05-09T07:38:13.618Z,14.85
2019-05-09T07:39:13.672Z,14.77
2019-05-09T07:40:13.531Z,14.85
2019-05-09T07:41:13.774Z,14.88
2019-05-09T07:42:13.002Z,14.85
2019-05-09T07:43:13.269Z,14.96
2019-05-09T07:44:13.011Z,14.91
2019-05-09T07:45:13.874Z,14.99
2019-05-09T07:46:13.723Z,14.91
2019-05-09T07:47:13.264Z,14.92
2019-05-09T07:48:13.272Z,14.91
2019-05-09T07:49:13.661Z,14.86
2019-05-09T07:50:13.387Z,14.86
2019-05-09T07:51:12.983Z,14.88
2019-05-09T07:52:15.094Z,14.91
2019-05-09T07:53:13.849Z,14.85
2019-05-09T07:54:29.179Z,14.65
2019-05-09T07:55:14.525Z,14.62
2019-05-09T07:56:13.494Z,14.65
2019-05-09T07:57:13.587Z,14.7
2019-05-09T07:58:18.636Z,14.78
2019-05-09T07:59:13.002Z,14.66
2019-05-09T08:00:13.499Z,14.59
2019-05-09T08:01:13.224Z,14.65
2019-05-09T08:02:13.798Z,14.7
2019-05-09T08:03:18.158Z,14.55
2019-05-09T08:04:13.236Z,14.54
2019-05-09T08:05:13.687Z,14.48
2019-05-09T08:06:13.641Z,14.51
2019-05-09T08:07:13.504Z,14.51
2019-05-09T08:08:13.305Z,14.43
2019-05-09T08:09:13.242Z,14.37
2019-05-09T08:10:17.524Z,14.37
2019-05-09T08:11:13.693Z,14.41
2019-05-09T08:12:13.231Z,14.47
2019-05-09T08:13:18.163Z,14.43
2019-05-09T08:14:17.560Z,14.53
2019-05-09T08:15:22.485Z,14.44
2019-05-09T08:16:21.143Z,14.53
2019-05-09T08:17:13.585Z,14.6
2019-05-09T08:18:13.439Z,14.59
2019-05-09T08:19:13.446Z,14.58
2019-05-09T08:20:17.499Z,14.63
2019-05-09T08:21:13.245Z,14.69
2019-05-09T08:22:13.464Z,14.69
2019-05-09T08:23:13.769Z,14.79
2019-05-09T08:24:13.183Z,14.91
2019-05-09T08:25:13.202Z,14.99
2019-05-09T08:26:13.903Z,14.96
2019-05-09T08:27:13.313Z,14.88
2019-05-09T08:28:14.117Z,14.89
2019-05-09T08:29:14.137Z,14.92
2019-05-09T08:30:13.207Z,14.96
2019-05-09T08:31:13.468Z,14.94
2019-05-09T08:32:13.443Z,14.92
2019-05-09T08:33:12.926Z,15.02
2019-05-09T08:34:13.420Z,15.04
2019-05-09T08:35:13.423Z,15.14
2019-05-09T08:36:13.992Z,15.21
2019-05-09T08:37:17.427Z,15.21
2019-05-09T08:38:13.367Z,15.24
2019-05-09T08:39:13.163Z,15.35
2019-05-09T08:40:13.412Z,15.28
2019-05-09T08:41:14.247Z,15.22
2019-05-09T08:42:13.458Z,15.25
2019-05-09T08:43:13.157Z,15.17
2019-05-09T08:44:13.158Z,15.27
2019-05-09T08:45:33.398Z,15.31
2019-05-09T08:46:13.151Z,15.36
2019-05-09T08:47:12.912Z,15.47
2019-05-09T08:48:14.119Z,15.55
2019-05-09T08:49:12.886Z,15.55
2019-05-09T08:50:13.175Z,15.67
2019-05-09T08:51:13.818Z,15.65
2019-05-09T08:52:22.420Z,15.55
2019-05-09T08:53:13.143Z,15.46
2019-05-09T08:54:14.172Z,15.36
2019-05-09T08:55:13.411Z,15.37
2019-05-09T08:56:19.937Z,15.39
2019-05-09T08:57:12.886Z,15.35
2019-05-09T08:58:13.403Z,15.17
2019-05-09T08:59:13.387Z,15
2019-05-09T09:00:13.150Z,15.15
2019-05-09T09:01:26.665Z,15
2019-05-09T09:02:28.281Z,14.96
2019-05-09T09:03:24.068Z,14.86
2019-05-09T09:04:24.006Z,14.81
2019-05-09T09:05:23.765Z,14.55
2019-05-09T09:06:24.533Z,14.65
2019-05-09T09:07:24.070Z,14.55
2019-05-09T09:08:23.966Z,14.47
2019-05-09T09:09:23.974Z,14.25
2019-05-09T09:10:23.703Z,14.22
2019-05-09T09:11:23.973Z,14.2
2019-05-09T09:12:38.336Z,14.14
2019-05-09T09:13:23.702Z,14.2
2019-05-09T09:14:23.954Z,14.1
2019-05-09T09:15:23.442Z,14.1
2019-05-09T09:16:28.287Z,14.08
2019-05-09T09:17:23.672Z,13.93
2019-05-09T09:18:23.918Z,13.87
2019-05-09T09:19:23.968Z,13.92
2019-05-09T09:20:23.669Z,13.92
2019-05-09T09:21:23.710Z,14
2019-05-09T09:22:23.686Z,14.05
2019-05-09T09:23:39.025Z,14.15
2019-05-09T09:24:23.692Z,14.07
2019-05-09T09:25:23.655Z,14.17
2019-05-09T09:26:23.655Z,14.15
2019-05-09T09:27:23.642Z,14.32
2019-05-09T09:28:23.384Z,14.4
2019-05-09T09:29:23.965Z,14.54
2019-05-09T09:30:31.787Z,14.51
2019-05-09T09:31:23.380Z,14.53
2019-05-09T09:32:23.977Z,14.58
2019-05-09T09:33:23.635Z,14.65
2019-05-09T09:34:25.271Z,14.65
2019-05-09T09:35:23.664Z,14.55
2019-05-09T09:36:23.631Z,14.59
2019-05-09T09:37:23.876Z,14.62
2019-05-09T09:38:23.609Z,14.55
2019-05-09T09:39:23.872Z,14.55
2019-05-09T09:40:23.634Z,14.63
2019-05-09T09:41:23.628Z,14.58
2019-05-09T09:42:25.056Z,14.68
2019-05-09T09:43:23.409Z,14.62
2019-05-09T09:44:28.621Z,14.82
2019-05-09T09:45:23.881Z,14.82
2019-05-09T09:46:23.372Z,14.78
2019-05-09T09:47:28.526Z,14.86
2019-05-09T09:48:23.854Z,14.84
2019-05-09T09:49:23.850Z,14.91
2019-05-09T09:50:23.605Z,14.92
2019-05-09T09:51:23.619Z,14.97
2019-05-09T09:52:23.597Z,15
2019-05-09T09:53:23.860Z,15.04
2019-05-09T09:54:23.598Z,15.15
2019-05-09T09:55:23.874Z,15.28
2019-05-09T09:56:28.143Z,15.46
2019-05-09T09:57:24.468Z,15.54
2019-05-09T09:58:24.064Z,15.7
2019-05-09T09:59:23.909Z,15.86
2019-05-09T10:00:23.595Z,15.91
2019-05-09T10:01:23.345Z,16.1
2019-05-09T10:02:23.342Z,16.31
2019-05-09T10:03:23.933Z,16.41
2019-05-09T10:04:30.841Z,16.58
2019-05-09T10:05:23.861Z,16.71
2019-05-09T10:06:23.850Z,16.75
2019-05-09T10:07:23.888Z,16.84
2019-05-09T10:08:23.348Z,17.04
2019-05-09T10:09:23.840Z,17.06
2019-05-09T10:10:23.592Z,17.08
2019-05-09T10:11:23.835Z,17.08
2019-05-09T10:12:23.840Z,17.01
2019-05-09T10:13:23.803Z,16.96
2019-05-09T10:14:23.598Z,16.96
2019-05-09T10:15:23.844Z,16.78
2019-05-09T10:16:35.150Z,16.61
2019-05-09T10:17:27.969Z,16.68
2019-05-09T10:18:23.587Z,16.72
2019-05-09T10:19:23.580Z,16.84
2019-05-09T10:20:23.573Z,16.91
2019-05-09T10:21:23.591Z,16.83
2019-05-09T10:22:29.750Z,16.87
2019-05-09T10:23:26.216Z,16.83
2019-05-09T10:24:23.583Z,16.93
2019-05-09T10:25:23.333Z,16.96
2019-05-09T10:26:23.618Z,16.86
2019-05-09T10:27:23.816Z,16.86
2019-05-09T10:28:29.684Z,16.84
2019-05-09T10:29:23.574Z,16.83
2019-05-09T10:30:23.606Z,16.83
2019-05-09T10:31:23.921Z,16.84
2019-05-09T10:32:23.580Z,16.93
2019-05-09T10:33:23.826Z,16.99
2019-05-09T10:34:23.576Z,16.89
2019-05-09T10:35:23.345Z,16.96
2019-05-09T10:36:23.339Z,16.99
2019-05-09T10:37:23.574Z,17.15
2019-05-09T10:38:23.588Z,17.23
2019-05-09T10:39:23.593Z,17.36
2019-05-09T10:40:23.893Z,17.51
2019-05-09T10:41:23.850Z,17.54
2019-05-09T10:42:23.827Z,17.57
2019-05-09T10:43:41.481Z,17.6
2019-05-09T10:44:23.367Z,17.45
2019-05-09T10:45:23.586Z,17.39
2019-05-09T10:46:24.172Z,17.31
2019-05-09T10:47:24.302Z,17.41
2019-05-09T10:48:30.741Z,17.56
2019-05-09T10:49:23.581Z,17.71
2019-05-09T10:50:23.879Z,17.98
2019-05-09T10:51:23.612Z,18.15
2019-05-09T10:52:23.588Z,18.31
2019-05-09T10:53:23.583Z,18.44
2019-05-09T10:54:23.829Z,18.49
2019-05-09T10:55:23.838Z,18.65
2019-05-09T10:56:23.737Z,18.62
2019-05-09T10:57:23.591Z,18.66
2019-05-09T10:58:30.390Z,18.8
2019-05-09T10:59:23.328Z,18.88
2019-05-09T11:00:23.593Z,18.95
2019-05-09T11:01:23.594Z,18.98
2019-05-09T11:02:23.587Z,19.11
2019-05-09T11:03:23.867Z,19.09
2019-05-09T11:04:23.581Z,19.15
2019-05-09T11:05:23.829Z,19.24
2019-05-09T11:06:23.839Z,19.24
2019-05-09T11:07:23.580Z,19.36
2019-05-09T11:08:23.838Z,19.56
2019-05-09T11:09:23.589Z,19.85
2019-05-09T11:10:35.361Z,19.73
2019-05-09T11:11:23.712Z,19.76
2019-05-09T11:12:23.609Z,19.49
2019-05-09T11:13:23.884Z,19.41
2019-05-09T11:14:40.022Z,19.21
2019-05-09T11:15:23.842Z,19.09
2019-05-09T11:16:38.026Z,18.78
2019-05-09T11:17:28.529Z,18.65
2019-05-09T11:18:23.845Z,18.74
2019-05-09T11:19:23.600Z,18.74
2019-05-09T11:20:24.402Z,18.65
2019-05-09T11:21:24.405Z,18.62
2019-05-09T11:22:25.693Z,18.53
2019-05-09T11:23:24.207Z,18.31
2019-05-09T11:24:47.866Z,18.13
2019-05-09T11:25:23.603Z,18.13
2019-05-09T11:26:23.936Z,18.13
2019-05-09T11:27:23.880Z,18
2019-05-09T11:28:24.217Z,18.07
2019-05-09T11:29:23.861Z,18.03
2019-05-09T11:30:23.852Z,17.95
2019-05-09T11:31:24.185Z,17.7
2019-05-09T11:32:23.923Z,17.42
2019-05-09T11:33:23.881Z,17.41
2019-05-09T11:34:23.853Z,17.33
2019-05-09T11:35:23.902Z,17.22
2019-05-09T11:36:26.065Z,17.16
2019-05-09T11:37:27.020Z,17.15
2019-05-09T11:38:49.022Z,16.99
2019-05-09T11:39:44.567Z,16.96
2019-05-09T11:40:23.603Z,17.01
2019-05-09T11:41:24.252Z,17.01
2019-05-09T11:42:23.865Z,17.01
2019-05-09T11:43:23.891Z,17.09
2019-05-09T11:44:23.885Z,17.12
2019-05-09T11:45:23.599Z,17.12
2019-05-09T11:46:23.850Z,17.05
2019-05-09T11:47:47.643Z,16.97
2019-05-09T11:48:23.859Z,16.93
2019-05-09T11:49:23.610Z,16.83
2019-05-09T11:50:27.635Z,16.83
2019-05-09T11:51:28.949Z,16.61
2019-05-09T11:52:23.604Z,16.47
2019-05-09T11:53:23.982Z,16.35
2019-05-09T11:54:24.411Z,16.28
2019-05-09T11:55:43.546Z,16.31
2019-05-09T11:56:23.594Z,16.31
2019-05-09T11:57:27.271Z,16.12
2019-05-09T11:58:23.894Z,16.1
2019-05-09T11:59:23.672Z,16.05
2019-05-09T12:00:23.603Z,16.08
2019-05-09T12:01:24.133Z,16.01
2019-05-09T12:02:23.836Z,16
2019-05-09T12:03:23.842Z,15.88
2019-05-09T12:04:23.857Z,15.84
2019-05-09T12:05:24.163Z,15.83
2019-05-09T12:06:25.124Z,15.76
2019-05-09T12:07:23.851Z,15.62
2019-05-09T12:08:23.836Z,15.59
2019-05-09T12:09:23.849Z,15.49
2019-05-09T12:10:23.838Z,15.4
2019-05-09T12:11:23.689Z,15.36
2019-05-09T12:12:24.181Z,15.28
2019-05-09T12:13:23.952Z,15.37
2019-05-09T12:14:23.583Z,15.35
2019-05-09T12:15:23.827Z,15.28
2019-05-09T12:16:23.824Z,15.28
2019-05-09T12:17:24.342Z,15.25
2019-05-09T12:18:23.578Z,15.29
2019-05-09T12:19:23.826Z,15.31
2019-05-09T12:20:23.334Z,15.27
2019-05-09T12:21:24.175Z,15.28
2019-05-09T12:22:24.210Z,15.27
2019-05-09T12:23:24.840Z,15.36
2019-05-09T12:24:23.860Z,15.28
2019-05-09T12:25:23.814Z,15.29
2019-05-09T12:26:23.811Z,15.37
2019-05-09T12:27:23.868Z,15.43
2019-05-09T12:28:24.972Z,15.46
2019-05-09T12:29:24.593Z,15.52
2019-05-09T12:30:23.629Z,15.54
2019-05-09T12:31:23.612Z,15.62
2019-05-09T12:32:23.571Z,15.73
2019-05-09T12:33:23.823Z,15.82
2019-05-09T12:34:24.135Z,15.72
2019-05-09T12:35:24.014Z,15.72
2019-05-09T12:36:23.987Z,15.77
2019-05-09T12:37:23.303Z,15.73
2019-05-09T12:38:23.781Z,15.83
2019-05-09T12:39:23.634Z,15.83
2019-05-09T12:40:24.984Z,15.82
2019-05-09T12:41:24.185Z,15.79
2019-05-09T12:42:23.705Z,15.83
2019-05-09T12:43:23.836Z,15.76
2019-05-09T12:44:28.773Z,15.83
2019-05-09T12:45:23.787Z,15.84
2019-05-09T12:46:23.812Z,15.91
2019-05-09T12:47:24.074Z,15.97
2019-05-09T12:48:24.475Z,16.01
2019-05-09T12:49:24.068Z,16
2019-05-09T12:50:23.529Z,15.95
2019-05-09T12:51:23.544Z,15.94
2019-05-09T12:52:23.569Z,15.98
2019-05-09T12:53:23.837Z,15.98
2019-05-09T12:54:24.030Z,16
2019-05-09T12:55:23.758Z,15.98
2019-05-09T12:56:23.775Z,15.98
2019-05-09T12:57:24.251Z,15.94
2019-05-09T12:58:23.825Z,16.16